• Join FlightAware (Why Join?)
  • Login
  • US Flag 
02:44AM EDT


 

Airport Tracker/Info


-or-


 

Live Flight TrackerFlight Track Log ✈ EJA102 ✈ 14-Jun-2013 ✈ KIAD - KHTO

Flight Track Log - Related Links

Times and Time Zones

All times are in EDT time to prevent confusion due to time zone crossing. See the EJA102 flight status page for this flight to view local times or setup timezone preferences in your user account.

Time Position Orientation Groundspeed Altitude Reporting Facility
EDT Latitude Longitude Course Direction KTS MPH feet Rate Location/Type
04:28PM 39.0000 -77.5167 113° Southeast 205 236 3,900  Level Potomac TRACON
04:29PM 39.0500 -77.5167 360° North 251 289 7,000 2,640 Climbing Potomac TRACON
04:29PM 39.1167 -77.4833 21° North 247 284 9,000 1,140 Climbing Potomac TRACON
04:31PM 39.1667 -77.4167 46° Northeast 276 318 9,300 720 Climbing Potomac TRACON
04:33PM 39.2850 -76.8716 113° Southeast  Level FlightAware Approximate
04:33PM 39.2717 -77.1894 59° Northeast 303 349 11,600  Level Washington Center
04:34PM 39.3189 -77.0778 61° Northeast 328 377 13,400 1,800 Climbing Washington Center
04:35PM 39.3122 -76.9489 94° East 343 395 15,300 1,800 Climbing Washington Center
04:36PM 39.2697 -76.8167 113° Southeast 356 410 17,100 1,680 Climbing Washington Center
04:37PM 39.2314 -76.6875 111° Southeast 369 425 18,800 1,740 Climbing Washington Center
04:38PM 39.1908 -76.5611 112° Southeast 379 436 20,600 1,080 Climbing Washington Center
04:39PM 39.1481 -76.4267 112° Southeast 384 442 21,000 180 Climbing Washington Center
04:40PM 39.1053 -76.2844 111° Southeast 407 468 21,000  Level Washington Center
04:41PM 39.0683 -76.1478 109° East 426 490 21,000  Level Washington Center
04:42PM 39.0461 -75.9953 101° East 431 496 21,000  Level Washington Center
04:43PM 39.0547 -75.8294 86° East 425 489 21,000  Level Washington Center
04:44PM 39.0614 -75.6825 87° East 419 482 21,000  Level Washington Center
04:45PM 39.0675 -75.5381 87° East 414 476 21,000  Level Washington Center
04:46PM 39.0714 -75.3911 88° East 414 476 21,000  Level Washington Center
04:47PM 39.0794 -75.2414 86° East 409 471 21,000 -60 Level Washington Center
04:48PM 39.0831 -75.1050 88° East 399 459 20,900  Descending Washington Center
04:49PM 39.0889 -74.9844 86° East 364 419 21,000  Climbing Washington Center
04:50PM 39.0944 -74.8642 87° East 342 394 21,000  Level Washington Center
04:51PM 39.0978 -74.7383 88° East 342 394 21,000  Level Washington Center
04:52PM 39.1031 -74.6153 87° East 342 394 21,000  Level Washington Center
04:54PM 39.2744 -74.3833 46° Northeast 362 417 21,000  Level New York Center
04:55PM 39.3583 -74.3017 37° Northeast 372 428 21,000  Level New York Center
04:56PM 39.4464 -74.2147 37° Northeast 385 443 21,000  Level New York Center
04:57PM 39.5322 -74.1247 39° Northeast 391 450 21,000 -540 Level New York Center
04:58PM 39.6022 -74.0147 50° Northeast 391 450 20,000 -1,440 Descending New York Center
04:59PM 39.6761 -73.9022 50° Northeast 374 430 18,100 -1,680 Descending New York Center
05:00PM 39.7411 -73.8025 50° Northeast 363 418 16,700 -1,380 Descending New York Center
05:01PM 39.8017 -73.7214 46° Northeast 350 403 15,400 -1,440 Descending New York Center
05:02PM 39.8683 -73.6378 44° Northeast 336 387 13,900 -1,260 Descending New York Center
05:03PM 39.9350 -73.5567 43° Northeast 330 380 13,000 -480 Descending New York Center
05:04PM 40.0119 -73.4675 42° Northeast 331 381 13,000 -900 Level New York Center
05:06PM 40.0717 -73.2725 68° East 327 376 10,600 -1,440 Descending Boston Center
05:07PM 40.1203 -73.2025 48° Northeast 292 336 9,100 -840 Descending Boston Center
05:08PM 40.1747 -73.1433 40° Northeast 256 295 9,000 -60 Descending Boston Center
05:09PM 40.2272 -73.0842 41° Northeast 244 281 9,000  Level Boston Center
05:10PM 40.2775 -73.0275 41° Northeast 239 275 9,000 -180 Level Boston Center
05:11PM 40.3278 -72.9736 39° Northeast 234 269 8,700 -600 Descending Boston Center
05:14PM 40.4667 -72.8167 41° Northeast 252 290 7,000 -540 Descending New York TRACON
05:15PM 40.5000 -72.7833 37° Northeast 242 278 7,000  Level New York TRACON
05:16PM 40.5667 -72.7167 37° Northeast 255 293 7,000 -480 Level New York TRACON
05:17PM 40.6167 -72.6500 45° Northeast 246 283 6,100 -1,200 Descending New York TRACON
05:18PM 40.6667 -72.6000 37° Northeast 239 275 4,600 -1,200 Descending New York TRACON
05:19PM 40.7167 -72.5500 37° Northeast 241 277 3,700 -1,140 Descending New York TRACON
05:20PM 40.7667 -72.4833 45° Northeast 243 280 2,400 -900 Descending New York TRACON
05:21PM 40.8167 -72.4333 37° Northeast 256 295 2,000 -240 Descending New York TRACON
05:22PM 40.8667 -72.3667 45° Northeast 245 282 2,000  Level New York TRACON
05:23PM 40.9000 -72.3000 57° Northeast 237 273 2,000  Level New York TRACON